Time;durP1;ratioP1;P1;durP2;ratioP2;P2;SDS_P1;SDS_P2;PMS_P1;PMS_P2;Temp;Humidity;BMP_temperature;BMP_pressure;BME280_temperature;BME280_humidity;BME280_pressure;Samples;Min_cycle;Max_cycle;Signal;HPM_P1;HPM_P2
2021/01/04 00:01:15;;;;;;;22.70;13.08;;;;;;;7.43;71.67;101351.11;1752976;81;21138;-65
2021/01/04 00:04:11;;;;;;;19.05;13.13;;;;;;;7.46;71.58;101355.95;1763870;80;21548;-66
2021/01/04 00:07:16;;;;;;;24.07;13.48;;;;;;;7.47;71.60;101356.40;1788904;80;21153;-66
2021/01/04 00:10:04;;;;;;;20.35;12.60;;;;;;;7.49;71.55;101358.62;1795125;80;21219;-63
2021/01/04 00:12:59;;;;;;;23.10;13.53;;;;;;;7.51;71.57;101356.91;1766482;80;21158;-65
2021/01/04 00:15:44;;;;;;;24.05;13.75;;;;;;;7.53;71.54;101355.20;1764687;80;21118;-64
2021/01/04 00:18:34;;;;;;;24.35;13.68;;;;;;;7.49;71.59;101358.20;1764972;80;21160;-67
2021/01/04 00:21:19;;;;;;;23.55;14.30;;;;;;;7.49;71.73;101356.90;1752198;79;21126;-66
2021/01/04 00:23:55;;;;;;;24.47;14.33;;;;;;;7.51;71.79;101352.98;1725113;81;21182;-65
2021/01/04 00:26:30;;;;;;;23.57;13.98;;;;;;;7.51;71.77;101347.73;1744151;81;21608;-65
2021/01/04 00:28:58;;;;;;;24.37;15.10;;;;;;;7.50;71.67;101353.42;1760134;80;21122;-65
2021/01/04 00:31:29;;;;;;;22.45;14.73;;;;;;;7.42;71.78;101347.17;1788729;80;21157;-65
2021/01/04 00:34:15;;;;;;;21.68;15.18;;;;;;;7.50;71.72;101349.91;1775897;80;21312;-66
2021/01/04 00:37:29;;;;;;;21.73;14.18;;;;;;;7.51;71.74;101351.22;1771392;80;21154;-64
2021/01/04 00:40:18;;;;;;;24.32;13.78;;;;;;;7.59;71.57;101349.61;1773482;79;21137;-66
2021/01/04 00:42:51;;;;;;;23.47;15.85;;;;;;;7.55;71.50;101348.24;1770239;80;21292;-64
2021/01/04 00:45:26;;;;;;;21.65;14.83;;;;;;;7.52;71.64;101342.95;1747963;80;21180;-65
2021/01/04 00:48:26;;;;;;;24.82;15.58;;;;;;;7.41;71.86;101344.96;1742257;80;21162;-65
2021/01/04 00:51:24;;;;;;;22.07;14.30;;;;;;;7.50;71.75;101342.94;1790177;80;21725;-67
2021/01/04 00:53:51;;;;;;;29.60;16.52;;;;;;;7.50;71.62;101336.80;1787654;80;21244;-64
2021/01/04 00:56:39;;;;;;;23.70;14.23;;;;;;;7.48;71.65;101333.28;1765508;80;21182;-64
2021/01/04 00:59:25;;;;;;;22.70;15.03;;;;;;;7.40;71.90;101322.25;1764770;80;21283;-65
2021/01/04 01:02:24;;;;;;;23.02;15.20;;;;;;;7.48;71.79;101321.49;1776818;80;21668;-64
2021/01/04 01:05:15;;;;;;;;;;;;;;;7.48;71.65;101325.01;1744834;81;21228;-65
2021/01/04 01:08:07;;;;;;;26.70;14.75;;;;;;;7.50;71.53;101314.13;1748794;80;20238;-66
2021/01/04 01:10:57;;;;;;;29.37;16.62;;;;;;;7.54;71.50;101323.77;1790266;80;21153;-65
2021/01/04 01:14:06;;;;;;;26.68;15.43;;;;;;;7.55;71.39;101323.35;1775411;80;21272;-64
2021/01/04 01:16:58;;;;;;;26.90;16.93;;;;;;;7.50;71.55;101330.25;1768106;80;21162;-66
2021/01/04 01:19:51;;;;;;;29.40;16.97;;;;;;;7.44;71.77;101327.12;1759883;81;21167;-64
2021/01/04 01:22:34;;;;;;;31.57;17.07;;;;;;;7.53;71.67;101325.06;1768908;80;21157;-64
2021/01/04 01:25:09;;;;;;;35.15;19.20;;;;;;;7.55;71.43;101324.22;1779199;80;21160;-65
2021/01/04 01:28:17;;;;;;;32.35;19.30;;;;;;;7.54;71.48;101324.21;1727851;83;21209;-64
2021/01/04 01:30:59;;;;;;;30.43;18.90;;;;;;;7.53;71.40;101325.06;1708975;81;21651;-66
2021/01/04 01:33:50;;;;;;;33.50;19.57;;;;;;;7.47;71.43;101321.03;1736892;81;21194;-66
2021/01/04 01:37:10;;;;;;;29.40;18.67;;;;;;;7.48;71.48;101322.80;1724208;82;21138;-65
2021/01/04 01:40:03;;;;;;;33.85;19.00;;;;;;;7.43;71.58;101323.61;1699955;83;21206;-65
2021/01/04 01:43:08;;;;;;;30.72;18.37;;;;;;;7.47;71.54;101327.17;1702187;83;21225;-65
2021/01/04 01:45:58;;;;;;;34.33;18.87;;;;;;;7.50;71.48;101330.25;1741231;81;21341;-65
2021/01/04 01:48:34;;;;;;;38.77;20.77;;;;;;;7.54;71.42;101327.70;1684311;83;21177;-66
2021/01/04 01:51:24;;;;;;;33.90;19.20;;;;;;;7.54;71.45;101322.45;1693730;83;21205;-64
2021/01/04 01:54:20;;;;;;;33.60;20.17;;;;;;;7.39;71.94;101318.30;1699931;83;21146;-66
2021/01/04 01:57:29;;;;;;;36.48;22.25;;;;;;;7.35;71.96;101313.43;1694622;84;21166;-65
2021/01/04 02:00:24;;;;;;;37.08;20.72;;;;;;;7.35;72.04;101309.50;1693581;83;21185;-66
2021/01/04 02:03:09;;;;;;;33.25;20.75;;;;;;;7.46;71.68;101304.45;1702262;83;21170;-64
2021/01/04 02:06:04;;;;;;;33.38;20.43;;;;;;;7.53;71.59;101311.52;1689493;84;21292;-66
2021/01/04 02:08:38;;;;;;;38.23;22.98;;;;;;;7.41;71.98;101315.28;1680293;83;21162;-65
2021/01/04 02:11:10;;;;;;;40.58;22.45;;;;;;;7.44;71.87;101304.41;1730532;82;21288;-67
2021/01/04 02:13:43;;;;;;;40.65;22.42;;;;;;;7.48;71.72;101301.43;1702136;84;21192;-65
2021/01/04 02:16:16;;;;;;;36.38;21.00;;;;;;;7.48;71.68;101304.05;1716926;83;21091;-65
2021/01/04 02:18:55;;;;;;;34.27;19.62;;;;;;;7.47;71.66;101293.53;1705516;81;21244;-66
2021/01/04 02:22:00;;;;;;;34.60;22.00;;;;;;;7.47;71.60;101298.77;1684333;83;21211;-65
2021/01/04 02:24:28;;;;;;;36.30;21.02;;;;;;;7.64;71.18;101292.47;1675853;84;21189;-66
2021/01/04 02:27:16;;;;;;;33.88;20.35;;;;;;;7.64;71.05;101292.47;1721733;82;21600;-65
2021/01/04 02:29:43;;;;;;;31.85;18.98;;;;;;;7.49;71.51;101284.86;1713090;82;21163;-66
2021/01/04 02:32:11;;;;;;;35.52;20.32;;;;;;;7.50;71.41;101277.45;1719520;83;21204;-66
2021/01/04 02:34:48;;;;;;;30.85;18.90;;;;;;;7.35;71.95;101278.52;1726511;82;21185;-66
2021/01/04 02:37:16;;;;;;;29.45;19.02;;;;;;;7.41;71.88;101272.07;1735176;82;21170;-65
2021/01/04 02:40:04;;;;;;;32.33;21.10;;;;;;;7.60;71.31;101278.45;1732993;82;21216;-66
2021/01/04 02:42:35;;;;;;;36.08;19.35;;;;;;;7.64;71.13;101270.20;1704960;83;21622;-64
2021/01/04 02:45:09;;;;;;;36.17;21.80;;;;;;;7.62;71.08;101270.19;1697175;84;21205;-66
2021/01/04 02:48:11;;;;;;;33.65;20.90;;;;;;;7.59;71.06;101263.59;1721513;82;21538;-66
2021/01/04 02:51:09;;;;;;;35.30;19.37;;;;;;;7.57;71.25;101264.00;1728795;82;21151;-65
2021/01/04 02:53:54;;;;;;;34.48;18.95;;;;;;;7.53;71.35;101266.98;1693347;84;21623;-65
2021/01/04 02:56:40;;;;;;;36.13;19.42;;;;;;;7.63;71.15;101269.75;1698655;82;21185;-64
2021/01/04 02:59:31;;;;;;;35.98;19.70;;;;;;;7.61;71.09;101269.73;1699872;83;21201;-66
2021/01/04 03:02:31;;;;;;;32.80;19.20;;;;;;;7.62;71.08;101271.91;1700624;83;21149;-66
2021/01/04 03:04:59;;;;;;;27.52;17.70;;;;;;;7.59;71.17;101269.70;1713275;83;21131;-64
2021/01/04 03:07:30;;;;;;;28.50;17.48;;;;;;;7.66;70.97;101270.69;1716157;82;21170;-64
2021/01/04 03:09:58;;;;;;;29.65;17.65;;;;;;;7.66;70.88;101275.93;1708208;82;21593;-65
2021/01/04 03:12:33;;;;;;;26.82;18.35;;;;;;;7.65;70.85;101278.52;1705173;83;21225;-66
2021/01/04 03:15:27;;;;;;;32.73;18.27;;;;;;;7.63;70.90;101277.61;1719280;82;21217;-65
2021/01/04 03:18:09;;;;;;;32.70;19.77;;;;;;;7.56;71.00;101276.20;1700402;83;21339;-65
2021/01/04 03:20:36;;;;;;;30.25;18.23;;;;;;;7.55;71.07;101282.30;1704715;82;21191;-64
2021/01/04 03:23:04;;;;;;;29.45;17.73;;;;;;;7.54;71.08;101281.84;1724616;82;21597;-65
2021/01/04 03:25:39;;;;;;;32.67;18.02;;;;;;;7.62;71.03;101283.70;1713598;82;21212;-65
2021/01/04 03:28:15;;;;;;;30.17;17.52;;;;;;;7.63;70.99;101293.33;1695801;84;21166;-66
2021/01/04 03:30:42;;;;;;;31.02;17.62;;;;;;;7.52;71.14;101294.48;1694877;83;21133;-64
2021/01/04 03:33:10;;;;;;;28.45;17.90;;;;;;;7.61;71.04;101283.25;1721142;83;21235;-63
2021/01/04 03:35:37;;;;;;;31.40;18.20;;;;;;;7.65;70.84;101279.82;1724701;82;21326;-65
2021/01/04 03:38:05;;;;;;;29.52;17.52;;;;;;;7.60;71.01;101275.84;1697725;82;21205;-66
2021/01/04 03:40:32;;;;;;;31.45;18.85;;;;;;;7.63;70.96;101265.81;1707178;82;21609;-65
2021/01/04 03:43:00;;;;;;;30.88;17.30;;;;;;;7.51;71.09;101271.77;1712205;82;21177;-65
2021/01/04 03:45:28;;;;;;;33.35;17.25;;;;;;;7.70;70.48;101263.33;1710734;83;21196;-65
2021/01/04 03:47:56;;;;;;;30.82;16.35;;;;;;;7.48;71.24;101270.41;1702716;84;21190;-64
2021/01/04 03:50:23;;;;;;;27.10;16.75;;;;;;;7.51;71.05;101262.16;1709137;82;21143;-64
2021/01/04 03:52:50;;;;;;;26.40;17.55;;;;;;;7.55;70.99;101265.72;1711743;83;21612;-64
2021/01/04 03:55:18;;;;;;;26.68;16.82;;;;;;;7.53;70.90;101266.98;1711012;82;21244;-65
2021/01/04 03:57:46;;;;;;;32.73;19.30;;;;;;;7.52;71.00;101256.05;1723384;82;21608;-64
2021/01/04 04:00:15;;;;;;;27.70;17.55;;;;;;;7.53;71.05;101259.57;1712007;82;21546;-64
2021/01/04 04:02:43;;;;;;;32.33;19.07;;;;;;;7.58;70.87;101256.15;1684025;84;21241;-63
2021/01/04 04:05:13;;;;;;;32.83;18.00;;;;;;;7.61;70.62;101249.19;1705394;83;21300;-64
2021/01/04 04:07:41;;;;;;;37.28;20.62;;;;;;;7.65;70.54;101251.00;1713660;83;21149;-64
2021/01/04 04:10:10;;;;;;;36.20;19.87;;;;;;;7.60;70.65;101252.26;1697640;83;21336;-64
2021/01/04 04:12:38;;;;;;;37.73;22.58;;;;;;;7.55;70.73;101250.00;1698352;83;21185;-64
2021/01/04 04:15:08;;;;;;;46.95;25.68;;;;;;;7.52;70.81;101251.27;1696856;83;21499;-64
2021/01/04 04:17:36;;;;;;;47.73;25.80;;;;;;;7.60;70.63;101254.88;1699945;83;21162;-64
2021/01/04 04:20:07;;;;;;;39.90;24.75;;;;;;;7.55;70.68;101257.86;1704522;83;21177;-64
2021/01/04 04:22:34;;;;;;;35.15;21.62;;;;;;;7.58;70.60;101253.53;1709406;82;21201;-63
2021/01/04 04:25:05;;;;;;;38.10;21.12;;;;;;;7.67;70.42;101250.59;1707878;83;21118;-63
2021/01/04 04:27:34;;;;;;;34.95;19.32;;;;;;;7.67;70.23;101251.90;1710144;82;21193;-63
2021/01/04 04:30:03;;;;;;;33.00;19.67;;;;;;;7.69;70.18;101251.49;1713296;83;21197;-64
2021/01/04 04:32:30;;;;;;;34.10;18.35;;;;;;;7.70;70.07;101239.73;1721878;83;21308;-64
2021/01/04 04:34:58;;;;;;;31.70;18.10;;;;;;;7.73;70.01;101251.98;1708268;83;21185;-65
2021/01/04 04:37:26;;;;;;;29.57;18.52;;;;;;;7.62;70.25;101258.81;1706613;83;21183;-64
2021/01/04 04:39:53;;;;;;;28.92;17.80;;;;;;;7.65;70.03;101257.55;1681553;84;21182;-63
2021/01/04 04:42:21;;;;;;;25.77;16.60;;;;;;;7.56;70.17;101260.93;1698338;83;21592;-63
2021/01/04 04:45:05;;;;;;;31.60;17.02;;;;;;;7.53;70.55;101266.12;1699019;83;21135;-63
2021/01/04 04:48:07;;;;;;;27.75;18.02;;;;;;;7.56;70.50;101268.34;1689476;83;21344;-63
2021/01/04 04:50:57;;;;;;;28.55;17.48;;;;;;;7.60;70.18;101265.36;1682964;84;21195;-63
2021/01/04 04:53:57;;;;;;;32.78;18.55;;;;;;;7.55;70.25;101271.82;1698166;83;21179;-64
2021/01/04 04:56:46;;;;;;;;;;;;;;;7.46;70.52;101272.13;1750497;81;21157;-63
2021/01/04 04:59:43;;;;;;;30.17;16.93;;;;;;;7.39;70.74;101268.55;1732909;81;20244;-65
2021/01/04 05:02:45;;;;;;;27.45;15.93;;;;;;;7.37;70.85;101270.26;1731436;82;21628;-64
2021/01/04 05:05:37;;;;;;;29.32;17.07;;;;;;;7.35;71.01;101273.28;1731916;81;21147;-65
2021/01/04 05:08:10;;;;;;;30.40;18.52;;;;;;;7.35;71.03;101282.00;1729048;81;21643;-65
2021/01/04 05:10:38;;;;;;;33.33;19.32;;;;;;;7.36;71.03;101286.83;1708113;83;21526;-66
2021/01/04 05:13:29;;;;;;;33.45;17.45;;;;;;;7.42;70.96;101281.69;1729264;82;21158;-63
2021/01/04 05:16:13;;;;;;;35.60;19.27;;;;;;;7.43;71.07;101279.52;1732312;82;21328;-64
2021/01/04 05:19:04;;;;;;;34.03;20.60;;;;;;;7.49;71.01;101278.31;1733487;82;21311;-65
2021/01/04 05:22:03;;;;;;;34.03;19.20;;;;;;;7.45;71.16;101272.57;1743502;81;21146;-63
2021/01/04 05:25:15;;;;;;;37.15;20.20;;;;;;;7.44;71.20;101279.53;1732260;81;21141;-64
2021/01/04 05:28:04;;;;;;;31.93;19.05;;;;;;;7.44;71.34;101273.42;1712657;81;21253;-63
2021/01/04 05:30:37;;;;;;;36.77;21.95;;;;;;;7.48;71.22;101271.31;1749331;81;21189;-65
2021/01/04 05:33:37;;;;;;;39.90;21.33;;;;;;;7.81;70.27;101261.25;1683073;83;21246;-64
2021/01/04 05:36:22;;;;;;;35.88;20.43;;;;;;;7.87;70.05;101265.27;1704626;83;21163;-65
2021/01/04 05:39:18;;;;;;;37.30;20.92;;;;;;;7.77;70.20;101254.20;1732119;81;21165;-66
2021/01/04 05:42:29;;;;;;;36.63;21.62;;;;;;;7.58;70.67;101263.14;1706139;83;21592;-64
2021/01/04 05:45:08;;;;;;;34.65;21.00;;;;;;;7.55;70.55;101263.96;1710950;82;21177;-64
2021/01/04 05:47:49;;;;;;;34.33;20.02;;;;;;;7.78;70.30;101266.45;1853155;77;22132;-64
2021/01/04 05:50:57;;;;;;;36.13;19.35;;;;;;;7.42;71.18;101272.08;1796944;78;21122;-66
2021/01/04 05:53:24;;;;;;;31.42;17.95;;;;;;;7.34;71.56;101273.69;1793269;80;21664;-64
2021/01/04 05:55:56;;;;;;;36.58;17.67;;;;;;;7.34;71.61;101278.93;1792970;80;21134;-65
2021/01/04 05:58:31;;;;;;;33.73;17.92;;;;;;;7.31;71.71;101287.18;1791712;80;21118;-66
2021/01/04 06:01:24;;;;;;;40.50;19.65;;;;;;;7.35;71.64;101276.77;1791194;79;21143;-65
2021/01/04 06:04:05;;;;;;;36.60;20.27;;;;;;;7.48;71.34;101279.58;1749073;80;21574;-65
2021/01/04 06:06:47;;;;;;;37.00;20.68;;;;;;;7.38;71.54;101283.36;1816919;77;22127;-62
2021/01/04 06:09:16;;;;;;;37.35;19.70;;;;;;;7.36;71.56;101290.75;1769020;80;21296;-64
2021/01/04 06:12:03;;;;;;;38.85;20.90;;;;;;;7.28;71.61;101295.88;1746288;81;21138;-65
2021/01/04 06:14:32;;;;;;;31.27;17.87;;;;;;;7.33;71.55;101296.81;1724364;81;21174;-66
2021/01/04 06:17:28;;;;;;;36.80;19.27;;;;;;;7.29;71.63;101292.38;1750525;81;21115;-66
2021/01/04 06:20:01;;;;;;;31.75;18.90;;;;;;;7.26;71.75;101289.30;1745399;81;21145;-66
2021/01/04 06:22:30;;;;;;;35.83;18.95;;;;;;;7.31;71.72;101289.80;1745353;81;21549;-65
2021/01/04 06:25:05;;;;;;;31.52;19.02;;;;;;;7.31;71.84;101289.80;1746936;81;21142;-65
2021/01/04 06:27:40;;;;;;;29.55;17.98;;;;;;;7.32;71.87;101280.64;1749258;81;21570;-64
2021/01/04 06:30:35;;;;;;;33.00;19.30;;;;;;;7.34;71.83;101296.40;1714938;83;21137;-64
2021/01/04 06:33:15;;;;;;;33.55;20.50;;;;;;;7.35;71.75;101288.99;1695907;84;21155;-65
2021/01/04 06:35:43;;;;;;;32.98;19.67;;;;;;;7.36;71.84;101279.83;1698300;84;21280;-65
2021/01/04 06:38:26;;;;;;;30.88;18.42;;;;;;;7.38;71.75;101285.98;1696650;84;21162;-66
2021/01/04 06:40:54;;;;;;;32.23;19.73;;;;;;;7.39;71.57;101289.05;1673818;84;21198;-64
2021/01/04 06:43:33;;;;;;;30.60;18.87;;;;;;;7.35;71.75;101287.23;1706054;83;21590;-64
2021/01/04 06:46:10;;;;;;;31.37;19.50;;;;;;;7.40;71.64;101282.95;1720423;83;21476;-63
2021/01/04 06:49:05;;;;;;;32.85;19.37;;;;;;;7.39;71.61;101287.74;1670931;86;21489;-63
2021/01/04 06:52:12;;;;;;;35.05;20.90;;;;;;;7.41;71.63;101292.58;1650379;85;21161;-64
2021/01/04 06:54:51;;;;;;;30.65;18.35;;;;;;;7.42;71.62;101290.41;1684169;84;21531;-64
2021/01/04 06:57:53;;;;;;;31.48;18.52;;;;;;;7.41;71.72;101282.55;1729919;83;21193;-67
2021/01/04 07:00:29;;;;;;;27.95;17.10;;;;;;;7.47;71.61;101288.30;1730602;83;21638;-63
2021/01/04 07:03:39;;;;;;;28.40;16.80;;;;;;;7.57;71.33;101288.45;1737357;81;21116;-64
2021/01/04 07:06:21;;;;;;;30.05;18.65;;;;;;;7.59;71.19;101284.11;1738044;82;21620;-63
2021/01/04 07:09:25;;;;;;;32.38;18.67;;;;;;;7.50;71.56;101277.86;1738545;82;21150;-65
2021/01/04 07:12:01;;;;;;;30.30;19.07;;;;;;;7.64;71.24;101275.44;1741001;81;21144;-63
2021/01/04 07:15:07;;;;;;;31.30;18.85;;;;;;;7.67;71.11;101280.31;1738846;82;21168;-67
2021/01/04 07:18:07;;;;;;;30.40;18.20;;;;;;;7.69;71.04;101277.70;1738253;82;21633;-65
2021/01/04 07:21:01;;;;;;;30.48;19.48;;;;;;;7.70;71.12;101278.15;1717450;82;21303;-66
2021/01/04 07:23:53;;;;;;;30.35;19.07;;;;;;;7.70;71.17;101282.98;1737610;82;21591;-67
2021/01/04 07:26:48;;;;;;;34.18;20.30;;;;;;;7.52;71.61;101290.11;1738225;82;21197;-66
2021/01/04 07:29:55;;;;;;;33.75;20.23;;;;;;;7.54;71.67;101279.67;1737360;81;21140;-65
2021/01/04 07:32:49;;;;;;;30.65;17.92;;;;;;;7.48;71.82;101281.78;1737068;82;21159;-64
2021/01/04 07:35:28;;;;;;;27.60;17.23;;;;;;;7.44;71.88;101283.45;1721132;83;21158;-64
2021/01/04 07:38:27;;;;;;;27.75;17.90;;;;;;;7.42;71.99;101282.55;1736113;83;21259;-63
2021/01/04 07:41:06;;;;;;;31.33;18.77;;;;;;;7.47;72.02;101277.41;1737958;82;21580;-66
2021/01/04 07:43:51;;;;;;;24.60;15.75;;;;;;;7.55;71.89;101279.68;1700675;84;21656;-63
2021/01/04 07:46:48;;;;;;;25.88;16.05;;;;;;;7.56;71.74;101281.44;1705769;84;21179;-64
2021/01/04 07:49:53;;;;;;;27.95;16.45;;;;;;;7.48;72.06;101272.62;1718085;83;21191;-67
2021/01/04 07:53:01;;;;;;;26.48;16.93;;;;;;;7.62;71.74;101266.67;1716553;83;21119;-65
2021/01/04 07:56:03;;;;;;;28.10;17.23;;;;;;;7.58;71.64;101265.77;1717142;83;21570;-64
2021/01/04 07:58:58;;;;;;;27.87;17.07;;;;;;;7.53;71.95;101274.84;1716900;83;21131;-65
2021/01/04 08:02:02;;;;;;;32.55;19.70;;;;;;;7.52;71.77;101281.39;1714143;83;21187;-67
2021/01/04 08:05:16;;;;;;;31.17;19.77;;;;;;;7.60;71.55;101274.53;1693123;85;21194;-67
2021/01/04 08:08:19;;;;;;;25.75;17.57;;;;;;;7.57;71.67;101268.80;1715767;83;21582;-66
2021/01/04 08:11:20;;;;;;;23.92;15.48;;;;;;;7.61;71.67;101272.77;1717126;83;21714;-66
2021/01/04 08:14:28;;;;;;;30.92;19.67;;;;;;;7.63;71.52;101265.41;1724082;82;21126;-64
2021/01/04 08:17:06;;;;;;;28.67;17.87;;;;;;;7.66;71.53;101264.55;1718192;83;21720;-64
2021/01/04 08:19:36;;;;;;;31.97;19.60;;;;;;;7.74;71.37;101260.30;1707988;83;21619;-65
2021/01/04 08:22:29;;;;;;;27.60;16.50;;;;;;;7.82;71.13;101262.60;1727385;83;21541;-67
2021/01/04 08:25:08;;;;;;;31.93;20.70;;;;;;;7.79;71.26;101261.66;1711438;84;21162;-66
2021/01/04 08:27:53;;;;;;;33.98;19.90;;;;;;;7.80;71.31;101248.59;1669563;84;21329;-63
2021/01/04 08:30:26;;;;;;;30.23;19.60;;;;;;;7.75;71.40;101239.79;1710575;84;21658;-69
2021/01/04 08:33:08;;;;;;;33.33;19.98;;;;;;;7.74;71.56;101237.58;1706838;83;21526;-67
2021/01/04 08:35:40;;;;;;;36.15;22.10;;;;;;;7.76;71.62;101238.93;1719511;83;21166;-65
2021/01/04 08:38:28;;;;;;;34.45;21.27;;;;;;;7.82;71.37;101236.80;1728823;81;21269;-65
2021/01/04 08:41:08;;;;;;;36.53;21.82;;;;;;;7.84;71.44;101235.98;1725336;82;21501;-66
2021/01/04 08:43:42;;;;;;;34.18;22.37;;;;;;;7.88;71.39;101226.41;1727456;83;21708;-64
2021/01/04 08:46:30;;;;;;;32.05;19.35;;;;;;;7.93;71.26;101228.66;1732743;82;21288;-65
2021/01/04 08:49:15;;;;;;;29.42;18.62;;;;;;;8.00;71.08;101233.12;1731723;82;21272;-66
2021/01/04 08:51:45;;;;;;;27.10;16.50;;;;;;;8.02;70.77;101229.19;1673818;83;21565;-66
2021/01/04 08:54:28;;;;;;;27.58;17.92;;;;;;;7.90;71.12;101232.55;1703862;84;21196;-66
2021/01/04 08:57:11;;;;;;;31.00;19.92;;;;;;;7.81;71.32;101232.01;1687822;84;21218;-67
2021/01/04 09:00:00;;;;;;;28.83;18.82;;;;;;;7.79;71.50;101234.14;1674746;85;21144;-66
2021/01/04 09:02:38;;;;;;;28.25;18.17;;;;;;;7.81;71.50;101224.14;1671040;86;21303;-67
2021/01/04 09:05:09;;;;;;;26.90;16.30;;;;;;;7.73;71.54;101221.41;1706255;82;21202;-65
2021/01/04 09:07:52;;;;;;;26.12;17.23;;;;;;;7.72;71.64;101220.09;1722657;83;21180;-64
2021/01/04 09:10:24;;;;;;;28.05;17.42;;;;;;;7.69;71.64;101217.42;1718292;83;21146;-67
2021/01/04 09:12:54;;;;;;;28.77;17.00;;;;;;;7.70;71.74;101210.02;1718048;83;21166;-66
2021/01/04 09:15:31;;;;;;;32.35;18.62;;;;;;;7.69;71.71;101213.50;1720089;83;21195;-66
2021/01/04 09:18:04;;;;;;;29.77;18.45;;;;;;;7.40;72.61;101212.69;1723059;83;21577;-67
2021/01/04 09:20:50;;;;;;;31.10;18.87;;;;;;;7.56;72.33;101208.53;1723187;83;21153;-67
2021/01/04 09:26:35;;;;;;;28.05;16.80;;;;;;;7.49;72.58;101202.34;1692445;85;21231;-67
2021/01/04 09:29:20;;;;;;;28.60;18.57;;;;;;;7.47;72.73;101211.02;1693027;85;21210;-65
2021/01/04 09:32:09;;;;;;;32.78;19.37;;;;;;;7.48;72.83;101210.16;1693024;85;21135;-64
2021/01/04 09:34:37;;;;;;;29.63;16.62;;;;;;;7.49;72.75;101219.78;1712836;83;21627;-66
2021/01/04 09:37:10;;;;;;;29.63;16.82;;;;;;;7.48;72.81;101211.05;1694715;83;21154;-65
2021/01/04 09:39:41;;;;;;;25.45;16.07;;;;;;;7.50;72.85;101221.55;1695307;83;21146;-64
2021/01/04 09:42:13;;;;;;;32.42;18.82;;;;;;;7.55;72.72;101213.32;1691431;84;21637;-66
2021/01/04 09:44:41;;;;;;;33.10;19.07;;;;;;;7.56;72.75;101213.33;1646875;86;21643;-64
2021/01/04 09:47:29;;;;;;;32.23;17.87;;;;;;;7.59;72.75;101208.58;1679345;84;21177;-64
2021/01/04 09:50:01;;;;;;;30.68;17.25;;;;;;;7.64;72.66;101204.69;1692448;85;21186;-66
2021/01/04 09:52:35;;;;;;;31.57;16.95;;;;;;;7.66;72.62;101205.59;1678346;84;21158;-64
2021/01/04 09:55:09;;;;;;;27.77;17.00;;;;;;;7.68;72.61;101201.25;1671742;85;21629;-67
2021/01/04 09:57:43;;;;;;;25.20;16.07;;;;;;;7.77;72.50;101199.17;1679718;84;21569;-67
2021/01/04 10:00:22;;;;;;;26.95;16.25;;;;;;;7.75;72.36;101196.55;1679425;84;21850;-67
2021/01/04 10:03:11;;;;;;;31.33;17.73;;;;;;;7.76;72.40;101193.06;1672349;86;21095;-67
2021/01/04 10:05:44;;;;;;;29.30;17.12;;;;;;;7.75;72.48;101195.23;1679712;84;21673;-68
2021/01/04 10:08:19;;;;;;;27.22;16.27;;;;;;;7.78;72.43;101190.03;1674162;86;21343;-68
2021/01/04 10:11:00;;;;;;;26.80;16.23;;;;;;;7.81;72.46;101186.55;1696817;83;21627;-66
2021/01/04 10:13:30;;;;;;;27.22;16.35;;;;;;;7.81;72.44;101183.94;1684369;85;21607;-66
2021/01/04 10:15:58;;;;;;;;;;;;;;;7.82;72.41;101183.08;1699255;83;21589;-68
2021/01/04 10:18:54;;;;;;;23.95;14.63;;;;;;;7.83;72.31;101177.87;1692710;85;20262;-68
2021/01/04 10:21:32;;;;;;;25.57;16.42;;;;;;;7.82;72.17;101173.91;1672124;86;21182;-65
2021/01/04 10:24:04;;;;;;;26.68;15.08;;;;;;;7.90;71.97;101172.26;1654496;86;21185;-64
2021/01/04 10:26:45;;;;;;;24.43;16.25;;;;;;;7.91;71.92;101172.70;1675856;85;21344;-67
2021/01/04 10:29:23;;;;;;;23.65;15.08;;;;;;;7.91;71.88;101170.53;1680385;84;21619;-69
2021/01/04 10:32:12;;;;;;;26.37;16.87;;;;;;;7.93;71.79;101168.36;1675644;84;21202;-66
2021/01/04 10:34:43;;;;;;;27.73;16.25;;;;;;;7.97;71.79;101162.70;1677841;84;21178;-64
2021/01/04 10:37:51;;;;;;;31.23;18.90;;;;;;;7.98;71.71;101173.64;1683023;84;21165;-63
2021/01/04 10:40:22;;;;;;;29.57;17.60;;;;;;;7.97;72.35;101170.57;1674700;86;21669;-65
2021/01/04 10:43:01;;;;;;;;;;;;;;;8.02;71.96;101169.78;1650215;86;21193;-63
2021/01/04 10:45:38;;;;;;;25.77;16.95;;;;;;;8.01;71.81;101167.12;1665177;83;20257;-66
2021/01/04 10:48:44;;;;;;;30.82;16.48;;;;;;;7.99;71.97;101164.91;1649035;87;21545;-64
2021/01/04 10:51:18;;;;;;;25.23;15.98;;;;;;;7.93;72.15;101166.19;1661547;86;21405;-66
2021/01/04 10:53:46;;;;;;;25.80;17.50;;;;;;;7.95;72.09;101156.59;1660508;86;21296;-66
2021/01/04 10:56:25;;;;;;;27.27;16.60;;;;;;;7.96;72.08;101158.33;1664957;85;21150;-66
2021/01/04 10:59:22;;;;;;;32.30;19.77;;;;;;;7.95;72.13;101152.22;1699610;84;21642;-66
2021/01/04 11:01:50;;;;;;;36.33;19.32;;;;;;;8.04;71.93;101156.67;1695280;84;21721;-63
2021/01/04 11:04:19;;;;;;;28.65;18.62;;;;;;;7.96;72.15;101160.95;1698566;83;21143;-63
2021/01/04 11:07:00;;;;;;;31.93;19.50;;;;;;;8.02;72.00;101155.36;1698356;84;21590;-67
2021/01/04 11:09:31;;;;;;;31.93;19.73;;;;;;;8.01;72.13;101150.08;1696753;84;21308;-63
2021/01/04 11:12:16;;;;;;;33.92;20.23;;;;;;;7.99;72.22;101144.84;1697792;84;21162;-64
2021/01/04 11:15:01;;;;;;;31.17;19.12;;;;;;;8.08;72.07;101141.87;1730516;80;21586;-64
2021/01/04 11:17:34;;;;;;;32.53;19.85;;;;;;;8.05;72.16;101147.95;1790077;79;21117;-67
2021/01/04 11:20:09;;;;;;;29.10;18.87;;;;;;;8.15;71.94;101146.32;1784107;80;21300;-67
2021/01/04 11:22:36;;;;;;;28.32;18.92;;;;;;;8.18;71.88;101148.53;1765871;79;21198;-64
2021/01/04 11:25:06;;;;;;;29.82;20.27;;;;;;;8.22;71.86;101137.63;1763833;81;21597;-65
2021/01/04 11:27:33;;;;;;;32.55;20.62;;;;;;;8.21;71.94;101138.94;1766668;81;21179;-63
2021/01/04 11:30:01;;;;;;;32.28;20.02;;;;;;;8.28;71.81;101146.86;1767980;81;21575;-67
2021/01/04 11:32:29;;;;;;;31.60;20.80;;;;;;;8.29;71.68;101142.06;1755044;79;21137;-67
2021/01/04 11:35:00;;;;;;;35.20;20.43;;;;;;;8.27;71.57;101134.61;1745949;81;21597;-63
2021/01/04 11:37:28;;;;;;;35.75;21.85;;;;;;;8.23;71.69;101131.52;1771545;81;21158;-65
2021/01/04 11:39:56;;;;;;;34.85;21.90;;;;;;;8.27;71.69;101129.37;1772662;79;21578;-67
2021/01/04 11:42:24;;;;;;;37.40;24.67;;;;;;;8.30;71.64;101131.16;1761677;80;21546;-64
2021/01/04 11:44:52;;;;;;;38.20;24.40;;;;;;;8.34;71.62;101130.33;1769380;81;21645;-65
2021/01/04 11:47:23;;;;;;;40.78;24.90;;;;;;;8.35;71.61;101124.21;1782274;79;21153;-67
2021/01/04 11:49:51;;;;;;;36.58;23.45;;;;;;;8.35;71.54;101122.91;1786792;79;21353;-67
2021/01/04 11:52:19;;;;;;;37.70;24.95;;;;;;;8.35;71.51;101122.91;1739746;81;21799;-67
2021/01/04 11:54:46;;;;;;;33.95;22.15;;;;;;;8.37;71.40;101119.86;1747053;82;21286;-64
2021/01/04 11:57:14;;;;;;;44.73;26.57;;;;;;;8.37;71.42;101123.80;1738346;82;21289;-65
2021/01/04 11:59:42;;;;;;;39.45;25.30;;;;;;;8.39;71.50;101129.05;1728873;81;21198;-67
2021/01/04 12:02:10;;;;;;;41.95;26.68;;;;;;;8.39;71.45;101125.97;1732631;82;21594;-65
2021/01/04 12:04:38;;;;;;;40.33;25.75;;;;;;;8.40;71.54;101130.80;1743743;82;21155;-67
2021/01/04 12:07:07;;;;;;;41.25;26.40;;;;;;;8.42;71.38;101128.63;1743807;81;21594;-63
2021/01/04 12:09:36;;;;;;;41.87;26.43;;;;;;;8.42;71.30;101126.00;1738430;82;21171;-64
2021/01/04 12:12:09;;;;;;;40.98;25.57;;;;;;;8.45;71.20;101127.78;1734490;82;21492;-63
2021/01/04 12:14:37;;;;;;;41.63;25.08;;;;;;;8.38;71.31;101126.87;1739432;82;21160;-67
2021/01/04 12:17:06;;;;;;;42.03;25.75;;;;;;;8.38;71.21;101119.41;1737597;82;21578;-67
2021/01/04 12:19:35;;;;;;;41.88;26.27;;;;;;;8.36;71.14;101115.48;1718362;82;21295;-67
2021/01/04 12:22:06;;;;;;;39.60;25.75;;;;;;;8.36;71.12;101122.45;1729343;82;21152;-63
2021/01/04 12:24:37;;;;;;;43.23;25.90;;;;;;;8.36;71.15;101121.14;1738408;82;21635;-67
2021/01/04 12:27:07;;;;;;;39.65;26.00;;;;;;;8.38;71.06;101122.93;1727140;82;21168;-67